Accueil
METAR-TAF:

METAR-TAF

Aéroports :

Aéroport de Nancy-Essey

Nancy, France

latitude: 48-41N, longitude: 006-13E, altitude: 225 m

Observation

Le bulletin a été fait il y a 25 minutes, à 19:00 UTC
Vent 4 kt de nord/nord-est, variant entre nord/nord-ouest et nord-est
Température 13°C
Humidité 77%
Pression 1023 hPa
Visibilité: 8000 m

METAR: LFSN 191900Z AUTO 02004KT 330V040 8000 NSC 13/09 Q1023

Heure: 21:25 (19:25 UTC)


TAF: absent

Observations et prévisions météorologiques de plus de 4000 aéroports (messages METAR et TAF).

Les stations disponibles sont représentées par des disques jaunes et rouges sur la carte.

Passer la souris dessus pour voir le nom de la station.

Cliquer dessus pour voir les observations et prévisions météorologiques.

Pour changer de carte: cliquez sur les boutons verts avec une croix noire pour zoomer, sur le bouton vert avec un tiret pour effectuer un zoom arrière, ou sur les flèches vertes pour les cartes adjacentes.


METAR-TAF: